createdAt,value
2019-05-30T06:52:01.095Z,3.60
2019-05-30T06:54:29.946Z,3.20
2019-05-30T06:56:58.825Z,3.20
2019-05-30T06:59:27.717Z,3.60
2019-05-30T07:01:56.521Z,3.20
2019-05-30T07:04:27.045Z,3.57
2019-05-30T07:06:55.978Z,3.50
2019-05-30T07:09:24.993Z,3.20
2019-05-30T07:11:53.934Z,3.00
2019-05-30T07:14:23.101Z,3.60
2019-05-30T07:16:51.913Z,3.40
2019-05-30T07:19:20.676Z,3.40
2019-05-30T07:21:49.501Z,3.50
2019-05-30T07:24:18.225Z,3.20
2019-05-30T07:26:47.090Z,3.60
2019-05-30T07:29:15.927Z,3.50
2019-05-30T07:31:44.685Z,3.77
2019-05-30T07:34:13.489Z,3.37
2019-05-30T07:36:42.205Z,3.50
2019-05-30T07:39:11.072Z,3.70
2019-05-30T07:41:40.211Z,3.30
2019-05-30T07:44:09.068Z,3.50
2019-05-30T07:46:37.792Z,3.63
2019-05-30T07:49:06.713Z,3.60
2019-05-30T07:51:35.443Z,4.17
2019-05-30T07:54:04.691Z,3.77
2019-05-30T07:56:33.751Z,3.80
2019-05-30T07:59:02.487Z,3.57
2019-05-30T08:01:32.345Z,4.20
2019-05-30T08:04:01.253Z,3.97
2019-05-30T08:06:31.535Z,3.93
2019-05-30T08:09:00.649Z,4.00
2019-05-30T08:11:29.406Z,4.00
2019-05-30T08:13:58.253Z,4.30
2019-05-30T08:16:27.102Z,4.20
2019-05-30T08:18:55.870Z,4.03
2019-05-30T08:21:24.713Z,4.17
2019-05-30T08:23:53.460Z,4.00
2019-05-30T08:26:22.247Z,3.93
2019-05-30T09:43:39.831Z,3.90
2019-05-30T09:46:09.545Z,3.55
2019-05-30T09:48:38.317Z,2.93
2019-05-30T09:51:07.144Z,2.92
2019-05-30T09:53:35.941Z,2.77
2019-05-30T09:56:05.149Z,3.07
2019-05-30T09:58:33.943Z,2.92
2019-05-30T10:01:02.817Z,2.97
2019-05-30T10:03:31.618Z,2.73
2019-05-30T10:06:00.409Z,2.98
2019-05-30T10:08:29.086Z,3.70
2019-05-30T10:10:57.917Z,3.23
2019-05-30T10:13:26.688Z,2.87
2019-05-30T10:15:56.637Z,3.60
2019-05-30T10:18:25.729Z,3.72
2019-05-30T10:20:54.463Z,3.87
2019-05-30T10:23:23.205Z,3.40
2019-05-30T10:25:53.265Z,3.60
2019-05-30T10:28:22.083Z,4.00
2019-05-30T10:30:55.886Z,3.90
2019-05-30T10:33:21.449Z,3.80
2019-05-30T10:35:51.522Z,3.53
2019-05-30T10:38:20.434Z,4.20
2019-05-30T10:40:50.475Z,3.70
2019-05-30T10:43:19.372Z,3.50
2019-05-30T10:45:49.394Z,3.73
2019-05-30T10:48:20.704Z,3.85
2019-05-30T10:50:48.750Z,3.73
2019-05-30T10:53:17.506Z,4.30
2019-05-30T10:55:46.920Z,4.05
2019-05-30T10:58:16.846Z,3.70
2019-05-30T11:00:55.722Z,3.77
2019-05-30T11:03:25.076Z,6.27
2019-05-30T11:06:07.634Z,6.23
2019-05-30T11:08:37.736Z,5.37
2019-05-30T11:11:06.474Z,9.83
2019-05-30T11:13:35.200Z,4.43
2019-05-30T11:16:04.144Z,5.17
2019-05-30T11:18:32.875Z,6.97
2019-05-30T11:21:01.613Z,6.10
2019-05-30T11:23:30.325Z,5.70
2019-05-30T11:25:59.091Z,4.77
2019-05-30T11:28:27.992Z,4.80
2019-05-30T11:30:56.901Z,4.50
2019-05-30T11:33:25.556Z,4.50
